createdAt,value
2019-05-05T00:00:01.677Z,95.90
2019-05-05T00:01:01.730Z,95.70
2019-05-05T00:02:01.653Z,95.07
2019-05-05T00:03:01.647Z,95.28
2019-05-05T00:04:01.633Z,94.86
2019-05-05T00:05:01.622Z,95.07
2019-05-05T00:06:01.612Z,94.76
2019-05-05T00:07:01.815Z,94.86
2019-05-05T00:08:01.585Z,95.53
2019-05-05T00:09:01.576Z,96.16
2019-05-05T00:10:01.566Z,95.74
2019-05-05T00:11:01.553Z,96.16
2019-05-05T00:12:01.542Z,96.16
2019-05-05T00:13:01.599Z,96.22
2019-05-05T00:14:01.520Z,96.11
2019-05-05T00:15:01.509Z,95.95
2019-05-05T00:16:01.501Z,96.05
2019-05-05T00:17:01.488Z,96.05
2019-05-05T00:18:01.480Z,96.05
2019-05-05T00:19:01.532Z,96.68
2019-05-05T00:20:01.459Z,97.05
2019-05-05T00:21:01.443Z,97.37
2019-05-05T00:22:01.437Z,97.11
2019-05-05T00:23:01.421Z,97.64
2019-05-05T00:24:01.410Z,97.49
2019-05-05T00:25:01.612Z,97.59
2019-05-05T00:26:01.504Z,97.17
2019-05-05T00:27:01.410Z,96.86
2019-05-05T00:28:01.426Z,96.76
2019-05-05T00:29:01.364Z,96.66
2019-05-05T00:30:01.361Z,96.61
2019-05-05T00:31:01.553Z,95.72
2019-05-05T00:32:01.387Z,96.13
2019-05-05T00:33:01.324Z,95.67
2019-05-05T00:34:01.348Z,95.98
2019-05-05T00:35:01.318Z,95.78
2019-05-05T00:36:01.304Z,94.94
2019-05-05T00:37:01.502Z,95.98
2019-05-05T00:38:01.308Z,95.98
2019-05-05T00:39:01.298Z,95.98
2019-05-05T00:40:01.255Z,96.04
2019-05-05T00:41:01.274Z,96.25
2019-05-05T00:42:01.240Z,95.62
2019-05-05T00:43:01.503Z,96.00
2019-05-05T00:44:01.217Z,96.00
2019-05-05T00:45:01.184Z,96.00
2019-05-05T00:46:01.187Z,95.68
2019-05-05T00:47:01.157Z,95.79
2019-05-05T00:48:01.175Z,95.79
2019-05-05T00:49:01.216Z,95.58
2019-05-05T00:50:01.139Z,95.89
2019-05-05T00:51:01.120Z,96.21
2019-05-05T00:52:01.106Z,96.00
2019-05-05T00:53:01.132Z,95.89
2019-05-05T00:54:01.113Z,96.21
2019-05-05T00:55:01.192Z,95.89
2019-05-05T00:56:01.078Z,95.89
2019-05-05T00:57:01.053Z,96.00
2019-05-05T00:58:01.042Z,95.79
2019-05-05T00:59:04.589Z,96.00
2019-05-05T01:00:01.021Z,96.31
2019-05-05T01:01:01.075Z,96.11
2019-05-05T01:02:01.002Z,96.04
2019-05-05T01:03:00.994Z,95.89
2019-05-05T01:04:00.968Z,96.04
2019-05-05T01:05:00.966Z,96.04
2019-05-05T01:06:00.970Z,96.25
2019-05-05T01:07:01.153Z,95.83
2019-05-05T01:08:00.940Z,95.79
2019-05-05T01:09:00.919Z,96.00
2019-05-05T01:10:00.913Z,95.73
2019-05-05T01:11:00.897Z,95.94
2019-05-05T01:12:01.799Z,96.15
2019-05-05T01:13:01.080Z,96.25
2019-05-05T01:14:00.854Z,95.73
2019-05-05T01:15:00.844Z,96.04
2019-05-05T01:16:00.833Z,95.94
2019-05-05T01:17:00.820Z,95.94
2019-05-05T01:18:02.262Z,96.09
2019-05-05T01:19:00.867Z,96.09
2019-05-05T01:20:04.059Z,96.40
2019-05-05T01:21:01.774Z,96.09
2019-05-05T01:22:00.766Z,96.50
2019-05-05T01:23:00.755Z,96.92
2019-05-05T01:24:00.745Z,96.92
2019-05-05T01:25:00.799Z,97.13
2019-05-05T01:26:00.726Z,96.61
2019-05-05T01:27:00.713Z,96.82
2019-05-05T01:28:00.703Z,96.71
2019-05-05T01:29:00.688Z,96.71
2019-05-05T01:30:00.678Z,96.61
2019-05-05T01:31:01.184Z,96.86
2019-05-05T01:32:00.658Z,96.97
2019-05-05T01:33:00.642Z,97.07
2019-05-05T01:34:00.632Z,97.17
2019-05-05T01:35:00.624Z,97.49
2019-05-05T01:36:00.614Z,97.38
2019-05-05T01:37:02.236Z,98.32
2019-05-05T01:38:00.587Z,98.11
2019-05-05T01:39:00.578Z,97.07
2019-05-05T01:40:00.565Z,98.43
2019-05-05T01:41:00.553Z,98.11
2019-05-05T01:42:00.542Z,98.11
2019-05-05T01:43:00.600Z,98.07
2019-05-05T01:44:00.521Z,98.11
2019-05-05T01:45:00.512Z,98.28
2019-05-05T01:46:00.501Z,97.97
2019-05-05T01:47:00.487Z,97.75
2019-05-05T01:48:00.476Z,97.97
2019-05-05T01:49:00.531Z,97.86
2019-05-05T01:50:08.236Z,98.07
2019-05-05T01:51:01.442Z,97.19
2019-05-05T01:52:00.431Z,97.44
2019-05-05T01:53:00.421Z,97.30
2019-05-05T01:54:00.410Z,97.19
2019-05-05T01:55:00.464Z,97.24
2019-05-05T01:56:00.387Z,96.92
2019-05-05T01:57:00.379Z,96.92
2019-05-05T01:58:00.367Z,97.09
2019-05-05T01:59:00.353Z,96.56
2019-05-05T02:00:00.345Z,97.19
2019-05-05T02:01:00.413Z,97.09
2019-05-05T02:02:00.320Z,97.09
2019-05-05T02:03:00.310Z,97.04
2019-05-05T02:04:00.298Z,97.04
2019-05-05T02:05:00.287Z,97.04
2019-05-05T02:06:00.275Z,96.62
2019-05-05T02:07:00.524Z,96.73
2019-05-05T02:08:00.257Z,96.83
2019-05-05T02:09:00.253Z,96.94
2019-05-05T02:10:00.234Z,96.42
2019-05-05T02:11:00.220Z,96.58
2019-05-05T02:12:00.209Z,96.06
2019-05-05T02:13:00.920Z,95.33
2019-05-05T02:14:00.187Z,95.64
2019-05-05T02:15:00.176Z,95.70
2019-05-05T02:16:00.165Z,95.64
2019-05-05T02:17:00.161Z,94.76
2019-05-05T02:18:00.141Z,95.70
2019-05-05T02:19:00.962Z,95.75
2019-05-05T02:20:00.119Z,95.60
2019-05-05T02:21:00.107Z,95.75
2019-05-05T02:22:00.096Z,95.95
2019-05-05T02:23:00.086Z,96.06
2019-05-05T02:24:00.076Z,95.85
2019-05-05T02:25:00.130Z,95.85
2019-05-05T02:26:00.057Z,95.95
2019-05-05T02:27:00.041Z,96.06
2019-05-05T02:28:00.028Z,95.68
2019-05-05T02:29:00.020Z,96.16
2019-05-05T02:30:00.009Z,95.95
2019-05-05T02:31:00.336Z,95.58
2019-05-05T02:31:59.985Z,95.64
2019-05-05T02:32:59.978Z,95.89
2019-05-05T02:33:59.961Z,95.79
2019-05-05T02:34:59.951Z,95.89
2019-05-05T02:35:59.939Z,95.95
2019-05-05T02:37:00.347Z,95.54
2019-05-05T02:37:59.919Z,95.54
2019-05-05T02:38:59.905Z,96.00
2019-05-05T02:40:06.392Z,95.79
2019-05-05T02:41:00.882Z,96.21
2019-05-05T02:41:59.871Z,96.11
2019-05-05T02:42:59.927Z,96.21
2019-05-05T02:43:59.848Z,96.00
2019-05-05T02:44:59.839Z,96.00
2019-05-05T02:45:59.836Z,96.21
2019-05-05T02:46:59.814Z,96.00
2019-05-05T02:47:59.805Z,96.73
2019-05-05T02:48:59.865Z,96.42
2019-05-05T02:49:59.780Z,96.42
2019-05-05T02:51:02.058Z,96.52
2019-05-05T02:51:59.772Z,96.52
2019-05-05T02:52:59.746Z,96.52
2019-05-05T02:53:59.738Z,96.98
2019-05-05T02:54:59.792Z,96.88
2019-05-05T02:55:59.714Z,96.77
2019-05-05T02:56:59.703Z,96.77
2019-05-05T02:57:59.691Z,96.31
2019-05-05T02:58:59.680Z,97.19
2019-05-05T02:59:59.670Z,97.19
2019-05-05T03:00:59.726Z,97.19
2019-05-05T03:01:59.645Z,97.19
2019-05-05T03:02:59.635Z,97.19
2019-05-05T03:03:59.630Z,97.19
2019-05-05T03:04:59.615Z,97.03
2019-05-05T03:05:59.601Z,96.46
2019-05-05T03:06:59.808Z,96.56
2019-05-05T03:07:59.579Z,96.56
2019-05-05T03:08:59.569Z,97.09
2019-05-05T03:09:59.561Z,96.98
2019-05-05T03:10:59.545Z,96.82
2019-05-05T03:11:59.533Z,96.98
2019-05-05T03:12:59.594Z,96.92
2019-05-05T03:13:59.512Z,96.77
2019-05-05T03:14:59.500Z,96.88
2019-05-05T03:15:59.490Z,96.92
2019-05-05T03:16:59.480Z,97.03
2019-05-05T03:17:59.466Z,97.03
2019-05-05T03:18:59.522Z,97.34
2019-05-05T03:19:59.443Z,98.18
2019-05-05T03:21:04.483Z,97.86
2019-05-05T03:22:00.420Z,97.97
2019-05-05T03:22:59.411Z,98.38
2019-05-05T03:23:59.400Z,97.59
2019-05-05T03:24:59.454Z,97.75
2019-05-05T03:25:59.382Z,97.75
2019-05-05T03:26:59.364Z,97.75
2019-05-05T03:27:59.354Z,97.61
2019-05-05T03:28:59.342Z,97.50
2019-05-05T03:29:59.332Z,98.02
2019-05-05T03:30:59.388Z,98.02
2019-05-05T03:31:59.312Z,97.77
2019-05-05T03:32:59.297Z,97.98
2019-05-05T03:33:59.300Z,97.88
2019-05-05T03:34:59.275Z,97.56
2019-05-05T03:35:59.266Z,97.77
2019-05-05T03:36:59.321Z,97.25
2019-05-05T03:37:59.241Z,97.77
2019-05-05T03:38:59.230Z,97.25
2019-05-05T03:39:59.218Z,96.89
2019-05-05T03:40:59.206Z,97.41
2019-05-05T03:41:59.197Z,97.25
2019-05-05T03:42:59.251Z,96.89
2019-05-05T03:43:59.174Z,96.89
2019-05-05T03:44:59.165Z,97.14
2019-05-05T03:45:59.166Z,96.89
2019-05-05T03:46:59.143Z,96.69
2019-05-05T03:47:59.128Z,97.20
2019-05-05T03:48:59.329Z,97.00
2019-05-05T03:49:59.106Z,97.31
2019-05-05T03:50:59.097Z,97.10
2019-05-05T03:51:59.083Z,96.89
2019-05-05T03:52:59.073Z,97.00
2019-05-05T03:53:59.062Z,97.20
2019-05-05T03:54:59.115Z,96.85
2019-05-05T03:55:59.038Z,97.06
2019-05-05T03:56:59.032Z,96.69
2019-05-05T03:57:59.016Z,97.20
2019-05-05T03:58:59.005Z,97.00
2019-05-05T03:59:58.995Z,96.79
2019-05-05T04:00:59.050Z,96.58
2019-05-05T04:01:58.973Z,96.75
2019-05-05T04:02:58.960Z,96.53
2019-05-05T04:03:58.951Z,96.33
2019-05-05T04:04:58.938Z,96.53
2019-05-05T04:05:58.926Z,95.50
2019-05-05T04:06:58.981Z,95.70
2019-05-05T04:07:58.907Z,95.91
2019-05-05T04:08:58.897Z,95.60
2019-05-05T04:09:58.882Z,96.12
2019-05-05T04:10:58.871Z,95.66
2019-05-05T04:11:58.862Z,95.56
2019-05-05T04:12:58.920Z,95.45
2019-05-05T04:13:58.840Z,95.03
2019-05-05T04:14:58.827Z,94.82
2019-05-05T04:15:58.816Z,94.82
2019-05-05T04:16:58.806Z,94.51
2019-05-05T04:17:58.799Z,94.72
2019-05-05T04:18:58.853Z,94.72
2019-05-05T04:19:58.772Z,93.95
2019-05-05T04:20:58.761Z,94.10
2019-05-05T04:21:58.751Z,93.85
2019-05-05T04:22:58.739Z,93.64
2019-05-05T04:23:58.730Z,93.85
2019-05-05T04:24:58.786Z,93.64
2019-05-05T04:25:58.707Z,93.33
2019-05-05T04:26:58.695Z,93.43
2019-05-05T04:27:58.689Z,93.39
2019-05-05T04:28:58.673Z,93.29
2019-05-05T04:29:58.662Z,92.86
2019-05-05T04:30:58.719Z,92.76
2019-05-05T04:31:58.643Z,92.35
2019-05-05T04:32:58.629Z,92.41
2019-05-05T04:33:58.619Z,92.20
2019-05-05T04:34:58.608Z,92.61
2019-05-05T04:35:58.597Z,91.78
2019-05-05T04:36:58.655Z,91.53
2019-05-05T04:37:58.578Z,91.12
2019-05-05T04:38:58.565Z,91.43
2019-05-05T04:39:58.552Z,92.36
2019-05-05T04:40:58.543Z,91.60
2019-05-05T04:41:58.531Z,91.18
2019-05-05T04:42:58.588Z,90.77
2019-05-05T04:43:58.509Z,90.97
2019-05-05T04:44:58.500Z,90.14
2019-05-05T04:45:58.494Z,88.65
2019-05-05T04:46:58.475Z,88.44
2019-05-05T04:47:58.466Z,88.65
2019-05-05T04:48:58.520Z,87.99
2019-05-05T04:49:58.441Z,87.68
2019-05-05T04:50:58.436Z,87.26
2019-05-05T04:51:58.418Z,88.09
2019-05-05T04:52:58.406Z,88.20
2019-05-05T04:53:58.396Z,87.74
2019-05-05T04:54:58.450Z,86.80
2019-05-05T04:55:58.373Z,85.66
2019-05-05T04:56:58.362Z,85.97
2019-05-05T04:57:58.353Z,86.08
2019-05-05T04:58:58.345Z,86.04
2019-05-05T04:59:58.331Z,85.63
2019-05-05T05:00:58.530Z,84.69
2019-05-05T05:01:58.304Z,84.31
2019-05-05T05:02:58.296Z,85.97
2019-05-05T05:03:58.282Z,83.80
2019-05-05T05:04:58.271Z,83.90
2019-05-05T05:05:58.260Z,84.31
2019-05-05T05:06:58.314Z,84.42
2019-05-05T05:07:58.240Z,84.17
2019-05-05T05:08:58.231Z,84.21
2019-05-05T05:09:58.219Z,84.42
2019-05-05T05:10:58.204Z,84.21
2019-05-05T05:11:58.194Z,85.14
2019-05-05T05:12:58.249Z,83.90
2019-05-05T05:13:58.172Z,83.86
2019-05-05T05:14:58.160Z,83.38
2019-05-05T05:15:58.151Z,83.17
2019-05-05T05:16:58.138Z,82.86
2019-05-05T05:17:58.126Z,82.45
2019-05-05T05:18:58.182Z,83.48
2019-05-05T05:19:58.108Z,83.38
2019-05-05T05:20:58.093Z,83.11
2019-05-05T05:22:01.801Z,84.46
2019-05-05T05:22:58.072Z,84.56
2019-05-05T05:23:58.061Z,83.42
2019-05-05T05:24:58.260Z,83.01
2019-05-05T05:25:58.038Z,82.45
2019-05-05T05:26:58.027Z,82.65
2019-05-05T05:27:58.025Z,82.03
2019-05-05T05:28:58.007Z,81.20
2019-05-05T05:29:57.994Z,81.27
2019-05-05T05:30:58.206Z,80.82
2019-05-05T05:31:57.973Z,80.19
2019-05-05T05:32:57.959Z,79.85
2019-05-05T05:33:57.952Z,78.47
2019-05-05T05:34:57.938Z,79.95
2019-05-05T05:35:57.925Z,78.12
2019-05-05T05:36:57.984Z,77.19
2019-05-05T05:37:57.904Z,74.74
2019-05-05T05:38:57.893Z,74.60
2019-05-05T05:39:57.885Z,72.61
2019-05-05T05:40:57.871Z,71.26
2019-05-05T05:41:57.857Z,70.75
2019-05-05T05:42:57.931Z,70.51
2019-05-05T05:43:57.837Z,69.48
2019-05-05T05:44:57.833Z,70.20
2019-05-05T05:45:57.818Z,68.72
2019-05-05T05:46:57.805Z,68.34
2019-05-05T05:47:57.793Z,69.03
2019-05-05T05:48:57.847Z,68.90
2019-05-05T05:49:57.768Z,68.45
2019-05-05T05:50:57.791Z,66.64
2019-05-05T05:51:57.826Z,65.16
2019-05-05T05:52:57.780Z,65.68
2019-05-05T05:53:57.736Z,64.54
2019-05-05T05:54:57.813Z,64.86
2019-05-05T05:55:57.739Z,65.03
2019-05-05T05:56:57.699Z,64.31
2019-05-05T05:57:57.711Z,64.93
2019-05-05T05:58:57.668Z,64.44
2019-05-05T05:59:57.657Z,64.68
2019-05-05T06:00:57.734Z,65.37
2019-05-05T06:02:08.987Z,65.26
2019-05-05T06:02:58.631Z,64.47
2019-05-05T06:03:57.685Z,65.53
2019-05-05T06:04:57.608Z,66.25
2019-05-05T06:05:57.617Z,64.47
2019-05-05T06:06:57.876Z,65.43
2019-05-05T06:07:57.617Z,64.95
2019-05-05T06:08:57.560Z,65.98
2019-05-05T06:09:57.660Z,66.28
2019-05-05T06:10:57.552Z,64.81
2019-05-05T06:11:57.576Z,64.47
2019-05-05T06:12:57.638Z,64.58
2019-05-05T06:13:57.509Z,64.75
2019-05-05T06:14:57.514Z,64.72
2019-05-05T06:15:57.486Z,62.87
2019-05-05T06:16:57.488Z,63.22
2019-05-05T06:17:57.461Z,61.79
2019-05-05T06:18:57.664Z,61.86
2019-05-05T06:19:57.431Z,61.83
2019-05-05T06:20:57.417Z,61.62
2019-05-05T06:21:57.406Z,60.80
2019-05-05T06:22:57.397Z,60.11
2019-05-05T06:23:57.387Z,61.24
2019-05-05T06:24:57.449Z,60.52
2019-05-05T06:25:57.364Z,59.85
2019-05-05T06:26:57.361Z,59.88
2019-05-05T06:27:57.339Z,60.52
2019-05-05T06:28:57.327Z,60.65
2019-05-05T06:29:57.324Z,61.19
2019-05-05T06:30:57.374Z,61.27
2019-05-05T06:31:57.324Z,61.04
2019-05-05T06:32:57.282Z,60.73
2019-05-05T06:33:57.270Z,61.44
2019-05-05T06:34:57.317Z,60.39
2019-05-05T06:35:57.250Z,59.00
2019-05-05T06:36:57.343Z,57.87
2019-05-05T06:37:57.224Z,58.33
2019-05-05T06:38:57.219Z,57.41
2019-05-05T06:39:57.202Z,56.90
2019-05-05T06:40:57.192Z,57.43
2019-05-05T06:41:57.180Z,59.36
2019-05-05T06:42:57.234Z,59.39
2019-05-05T06:43:57.157Z,60.24
2019-05-05T06:44:57.146Z,61.37
2019-05-05T06:45:57.134Z,61.88
2019-05-05T06:46:57.122Z,61.79
2019-05-05T06:47:57.113Z,62.45
2019-05-05T06:48:57.167Z,59.44
2019-05-05T06:49:57.159Z,58.39
2019-05-05T06:50:57.078Z,59.06
2019-05-05T06:51:57.070Z,58.85
2019-05-05T06:52:57.054Z,59.67
2019-05-05T06:53:57.046Z,58.95
2019-05-05T06:54:57.100Z,60.93
2019-05-05T06:55:57.023Z,60.54
2019-05-05T06:56:57.013Z,59.72
2019-05-05T06:57:56.996Z,58.26
2019-05-05T06:58:56.989Z,56.46
2019-05-05T06:59:56.980Z,54.85
2019-05-05T07:00:57.029Z,55.77
2019-05-05T07:01:56.955Z,56.69
2019-05-05T07:02:56.942Z,54.51
2019-05-05T07:03:56.932Z,54.61
2019-05-05T07:04:56.921Z,56.15
2019-05-05T07:05:56.908Z,54.38
2019-05-05T07:06:57.283Z,53.21
2019-05-05T07:07:56.885Z,52.57
2019-05-05T07:08:56.872Z,51.01
2019-05-05T07:09:56.860Z,49.74
2019-05-05T07:10:56.853Z,49.82
2019-05-05T07:11:56.842Z,49.90
2019-05-05T07:12:57.043Z,50.38
2019-05-05T07:13:56.818Z,47.96
2019-05-05T07:14:56.809Z,47.42
2019-05-05T07:15:56.793Z,46.30
2019-05-05T07:16:56.782Z,47.98
2019-05-05T07:17:56.776Z,46.26
2019-05-05T07:18:56.829Z,46.16
2019-05-05T07:19:56.751Z,48.64
2019-05-05T07:20:56.737Z,48.51
2019-05-05T07:21:56.756Z,47.47
2019-05-05T07:23:02.018Z,45.69
2019-05-05T07:23:57.798Z,44.78
2019-05-05T07:24:56.698Z,44.75
2019-05-05T07:25:56.680Z,45.04
2019-05-05T07:26:56.671Z,43.77
2019-05-05T07:27:56.660Z,42.47
2019-05-05T07:28:56.647Z,43.26
2019-05-05T07:29:56.702Z,43.55
2019-05-05T07:30:56.675Z,43.77
2019-05-05T07:31:56.614Z,42.63
2019-05-05T07:32:56.604Z,42.41
2019-05-05T07:33:56.592Z,43.04
2019-05-05T07:34:56.581Z,41.92
2019-05-05T07:36:02.966Z,41.92
2019-05-05T07:36:57.559Z,42.10
2019-05-05T07:37:56.559Z,42.51
2019-05-05T07:38:56.535Z,41.99
2019-05-05T07:39:56.530Z,41.46
2019-05-05T07:40:56.513Z,40.54
2019-05-05T07:41:56.580Z,40.56
2019-05-05T07:42:56.493Z,41.25
2019-05-05T07:43:56.479Z,40.46
2019-05-05T07:44:56.468Z,40.01
2019-05-05T07:45:56.473Z,38.47
2019-05-05T07:46:56.451Z,38.88
2019-05-05T07:47:56.525Z,40.46
2019-05-05T07:48:56.429Z,39.75
2019-05-05T07:49:56.510Z,40.84
2019-05-05T07:51:01.905Z,39.02
2019-05-05T07:51:57.465Z,39.89
2019-05-05T07:53:10.398Z,40.91
2019-05-05T07:53:57.470Z,38.27
2019-05-05T07:54:56.446Z,39.17
2019-05-05T07:55:56.390Z,39.15
2019-05-05T07:56:56.339Z,38.70
2019-05-05T07:57:56.445Z,37.38
2019-05-05T07:58:56.368Z,36.76
2019-05-05T07:59:56.399Z,36.87
2019-05-05T08:00:56.317Z,37.86
2019-05-05T08:01:56.330Z,36.85
2019-05-05T08:02:56.282Z,36.74
2019-05-05T08:03:56.263Z,37.25
2019-05-05T08:04:56.261Z,37.34
2019-05-05T08:05:56.459Z,36.72
2019-05-05T08:06:56.293Z,37.30
2019-05-05T08:07:56.227Z,34.62
2019-05-05T08:08:56.221Z,34.47
2019-05-05T08:09:56.193Z,36.56
2019-05-05T08:10:56.202Z,36.51
2019-05-05T08:11:56.398Z,37.10
2019-05-05T08:12:56.160Z,35.65
2019-05-05T08:13:56.151Z,36.81
2019-05-05T08:14:56.144Z,34.55
2019-05-05T08:15:59.747Z,32.55
2019-05-05T08:16:56.108Z,34.28
2019-05-05T08:17:56.164Z,32.33
2019-05-05T08:18:56.088Z,34.06
2019-05-05T08:19:56.073Z,33.81
2019-05-05T08:20:56.064Z,31.38
2019-05-05T08:21:56.051Z,31.73
2019-05-05T08:22:56.039Z,33.56
2019-05-05T08:23:56.101Z,33.67
2019-05-05T08:24:56.021Z,34.00
2019-05-05T08:25:56.007Z,35.57
2019-05-05T08:26:56.034Z,33.80
2019-05-05T08:27:55.984Z,33.86
2019-05-05T08:28:55.971Z,32.59
2019-05-05T08:29:56.026Z,31.06
2019-05-05T08:30:55.954Z,30.70
2019-05-05T08:31:55.939Z,31.00
2019-05-05T08:32:55.926Z,32.30
2019-05-05T08:33:55.918Z,30.73
2019-05-05T08:35:00.526Z,30.82
2019-05-05T08:35:56.960Z,30.22
2019-05-05T08:36:55.908Z,31.25
2019-05-05T08:37:55.871Z,30.96
2019-05-05T08:38:55.859Z,30.94
2019-05-05T08:39:55.865Z,33.04
2019-05-05T08:40:55.835Z,32.13
2019-05-05T08:41:56.036Z,30.60
2019-05-05T08:42:55.814Z,30.30
2019-05-05T08:43:55.804Z,30.82
2019-05-05T08:44:55.796Z,29.82
2019-05-05T08:45:55.782Z,30.02
2019-05-05T08:46:55.771Z,29.40
2019-05-05T08:47:55.824Z,28.08
2019-05-05T08:48:55.750Z,29.82
2019-05-05T08:49:55.737Z,30.36
2019-05-05T08:50:55.732Z,31.93
2019-05-05T08:51:55.712Z,31.86
2019-05-05T08:52:55.705Z,32.99
2019-05-05T08:53:55.760Z,34.05
2019-05-05T08:54:55.680Z,31.30
2019-05-05T08:55:55.674Z,28.95
2019-05-05T08:56:55.660Z,27.01
2019-05-05T08:57:55.646Z,28.91
2019-05-05T08:58:55.636Z,28.10
2019-05-05T08:59:55.840Z,30.16
2019-05-05T09:00:55.613Z,28.02
2019-05-05T09:01:55.603Z,27.23
2019-05-05T09:02:55.592Z,28.25
2019-05-05T09:03:55.581Z,28.19
2019-05-05T09:04:55.568Z,29.27
2019-05-05T09:05:55.622Z,29.03
2019-05-05T09:06:55.545Z,28.42
2019-05-05T09:07:55.539Z,29.82
2019-05-05T09:08:55.525Z,28.51
2019-05-05T09:09:55.513Z,28.00
2019-05-05T09:10:55.502Z,27.72
2019-05-05T09:11:55.557Z,28.63
2019-05-05T09:12:55.481Z,28.80
2019-05-05T09:13:55.469Z,28.37
2019-05-05T09:14:55.460Z,29.75
2019-05-05T09:15:55.446Z,27.73
2019-05-05T09:16:55.469Z,28.43
2019-05-05T09:17:55.487Z,27.93
2019-05-05T09:18:55.411Z,28.70
2019-05-05T09:19:55.399Z,30.14
2019-05-05T09:20:55.391Z,31.18
2019-05-05T09:21:55.378Z,32.42
2019-05-05T09:22:57.301Z,32.65
2019-05-05T09:24:01.560Z,32.70
2019-05-05T09:24:56.344Z,31.52
2019-05-05T09:25:55.335Z,30.71
2019-05-05T09:26:55.323Z,31.26
2019-05-05T09:27:55.314Z,30.21
2019-05-05T09:28:55.302Z,31.19
2019-05-05T09:29:55.357Z,32.29
2019-05-05T09:30:55.279Z,34.26
2019-05-05T09:31:55.269Z,35.72
2019-05-05T09:32:55.263Z,33.74
2019-05-05T09:33:55.246Z,34.25
2019-05-05T09:34:55.237Z,33.94
2019-05-05T09:35:55.290Z,33.33
2019-05-05T09:36:55.213Z,33.20
2019-05-05T09:37:55.204Z,34.23
2019-05-05T09:38:55.192Z,33.76
2019-05-05T09:39:55.181Z,33.50
2019-05-05T09:40:55.188Z,33.35
2019-05-05T09:41:55.227Z,35.73
2019-05-05T09:42:55.147Z,37.26
2019-05-05T09:43:55.136Z,36.36
2019-05-05T09:44:55.125Z,37.07
2019-05-05T09:45:55.114Z,37.39
2019-05-05T09:46:55.105Z,37.10
2019-05-05T09:47:55.158Z,37.63
2019-05-05T09:48:55.082Z,39.07
2019-05-05T09:49:55.081Z,39.40
2019-05-05T09:50:55.062Z,40.55
2019-05-05T09:51:55.050Z,40.47
2019-05-05T09:52:55.038Z,38.18
2019-05-05T09:53:55.092Z,34.11
2019-05-05T09:54:55.013Z,32.21
2019-05-05T09:55:55.005Z,30.24
2019-05-05T09:56:54.994Z,29.09
2019-05-05T09:57:54.981Z,29.06
2019-05-05T09:58:54.969Z,28.31
2019-05-05T09:59:55.026Z,26.78
2019-05-05T10:00:54.957Z,25.46
2019-05-05T10:01:54.936Z,24.68
2019-05-05T10:02:54.935Z,26.87
2019-05-05T10:03:54.914Z,26.77
2019-05-05T10:04:54.904Z,30.27
2019-05-05T10:05:54.964Z,28.38
2019-05-05T10:06:54.883Z,32.33
2019-05-05T10:07:54.872Z,32.84
2019-05-05T10:08:54.863Z,37.17
2019-05-05T10:09:54.849Z,36.73
2019-05-05T10:10:54.874Z,37.39
2019-05-05T10:11:54.894Z,35.50
2019-05-05T10:12:54.999Z,35.33
2019-05-05T10:13:54.805Z,36.16
2019-05-05T10:14:54.810Z,35.77
2019-05-05T10:15:55.016Z,35.39
2019-05-05T10:16:54.770Z,36.55
2019-05-05T10:17:54.970Z,38.60
2019-05-05T10:18:54.753Z,38.72
2019-05-05T10:19:54.776Z,39.43
2019-05-05T10:20:54.727Z,39.53
2019-05-05T10:21:54.714Z,40.45
2019-05-05T10:22:54.706Z,38.42
2019-05-05T10:23:54.758Z,38.53
2019-05-05T10:24:57.317Z,39.84
2019-05-05T10:25:54.670Z,38.64
2019-05-05T10:26:54.661Z,38.62
2019-05-05T10:27:54.656Z,38.94
2019-05-05T10:28:54.693Z,38.01
2019-05-05T10:29:54.892Z,38.80
2019-05-05T10:30:54.628Z,39.82
2019-05-05T10:31:54.609Z,38.38
2019-05-05T10:32:54.716Z,36.85
2019-05-05T10:33:54.583Z,36.97
2019-05-05T10:34:54.569Z,37.31
2019-05-05T10:35:54.626Z,38.64
2019-05-05T10:36:54.546Z,37.29
2019-05-05T10:37:54.643Z,38.19
2019-05-05T10:38:54.525Z,37.58
2019-05-05T10:39:54.513Z,37.58
2019-05-05T10:40:54.502Z,38.62
2019-05-05T10:41:56.205Z,37.68
2019-05-05T10:42:54.479Z,36.87
2019-05-05T10:43:54.482Z,36.93
2019-05-05T10:44:54.457Z,38.56
2019-05-05T10:45:54.737Z,37.49
2019-05-05T10:46:54.439Z,35.53
2019-05-05T10:47:54.500Z,35.63
2019-05-05T10:48:54.411Z,37.88
2019-05-05T10:49:54.547Z,37.72
2019-05-05T10:50:54.390Z,38.14
2019-05-05T10:51:54.477Z,39.65
2019-05-05T10:52:54.364Z,39.33
2019-05-05T10:53:54.638Z,39.65
2019-05-05T10:54:54.903Z,39.39
2019-05-05T10:55:54.331Z,39.26
2019-05-05T10:56:54.321Z,37.01
2019-05-05T10:57:54.533Z,37.87
2019-05-05T10:58:54.637Z,33.91
2019-05-05T10:59:54.354Z,35.19
2019-05-05T11:00:54.553Z,35.49
2019-05-05T11:01:54.263Z,34.46
2019-05-05T11:02:54.252Z,34.22
2019-05-05T11:03:54.241Z,35.04
2019-05-05T11:04:54.663Z,35.42
2019-05-05T11:05:54.284Z,36.54
2019-05-05T11:06:54.664Z,35.53
2019-05-05T11:07:54.195Z,35.41
2019-05-05T11:08:54.183Z,35.73
2019-05-05T11:09:54.171Z,35.75
2019-05-05T11:10:54.162Z,35.44
2019-05-05T11:11:54.216Z,35.36
2019-05-05T11:12:54.137Z,31.71
2019-05-05T11:13:54.351Z,32.47
2019-05-05T11:14:54.546Z,31.10
2019-05-05T11:15:54.703Z,32.03
2019-05-05T11:16:54.643Z,32.56
2019-05-05T11:17:54.330Z,32.98
2019-05-05T11:18:54.188Z,32.42
2019-05-05T11:19:54.057Z,35.42
2019-05-05T11:20:54.802Z,36.27
2019-05-05T11:21:54.118Z,37.07
2019-05-05T11:22:54.226Z,35.77
2019-05-05T11:23:54.226Z,35.27
2019-05-05T11:25:00.574Z,36.31
2019-05-05T11:25:54.990Z,36.71
2019-05-05T11:26:54.137Z,36.29
2019-05-05T11:27:54.220Z,36.00
2019-05-05T11:28:54.007Z,37.43
2019-05-05T11:29:54.206Z,38.87
2019-05-05T11:30:53.936Z,38.85
2019-05-05T11:31:53.925Z,38.56
2019-05-05T11:32:53.913Z,38.36
2019-05-05T11:33:54.287Z,38.15
2019-05-05T11:34:53.891Z,35.58
2019-05-05T11:35:54.096Z,34.08
2019-05-05T11:36:54.425Z,35.50
2019-05-05T11:37:54.309Z,36.21
2019-05-05T11:38:53.875Z,36.53
2019-05-05T11:39:53.835Z,35.53
2019-05-05T11:40:54.625Z,36.12
2019-05-05T11:41:54.777Z,34.45
2019-05-05T11:42:54.123Z,33.39
2019-05-05T11:43:53.791Z,33.29
2019-05-05T11:44:53.780Z,33.64
2019-05-05T11:45:54.379Z,32.48
2019-05-05T11:46:54.684Z,31.10
2019-05-05T11:47:53.958Z,30.87
2019-05-05T11:48:54.384Z,30.32
2019-05-05T11:49:56.622Z,29.63
2019-05-05T11:50:54.128Z,30.05
2019-05-05T11:51:54.340Z,29.33
2019-05-05T11:52:54.465Z,28.21
2019-05-05T11:53:54.101Z,29.81
2019-05-05T11:54:54.359Z,28.48
2019-05-05T11:55:54.990Z,28.70
2019-05-05T11:56:54.063Z,31.16
2019-05-05T11:57:54.468Z,29.95
2019-05-05T11:58:54.629Z,31.21
2019-05-05T11:59:54.064Z,35.21
2019-05-05T12:00:54.438Z,36.41
2019-05-05T12:01:54.977Z,37.26
2019-05-05T12:02:54.383Z,33.74
2019-05-05T12:04:59.757Z,36.07
2019-05-05T12:05:59.535Z,38.20
2019-05-05T12:06:59.529Z,35.05
2019-05-05T12:07:59.512Z,36.47
2019-05-05T12:08:59.502Z,35.95
2019-05-05T12:09:59.492Z,35.73
2019-05-05T12:10:59.548Z,34.94
2019-05-05T12:11:59.467Z,36.88
2019-05-05T12:12:59.456Z,37.08
2019-05-05T12:13:59.459Z,36.88
2019-05-05T12:14:59.433Z,39.36
2019-05-05T12:15:59.423Z,38.48
2019-05-05T12:16:59.479Z,39.21
2019-05-05T12:17:59.403Z,40.67
2019-05-05T12:18:59.387Z,40.28
2019-05-05T12:19:59.376Z,41.88
2019-05-05T12:20:59.365Z,38.39
2019-05-05T12:21:59.354Z,37.00
2019-05-05T12:22:59.554Z,34.91
2019-05-05T12:23:59.331Z,34.33
2019-05-05T12:24:59.433Z,34.01
2019-05-05T12:25:59.308Z,33.95
2019-05-05T12:26:59.302Z,34.01
2019-05-05T12:27:59.287Z,34.20
2019-05-05T12:28:59.486Z,33.59
2019-05-05T12:29:59.262Z,35.70
2019-05-05T12:30:48.985Z,36.39
2019-05-05T12:31:48.982Z,38.58
2019-05-05T12:32:48.958Z,41.06
2019-05-05T12:33:48.946Z,42.33
2019-05-05T12:34:49.147Z,42.33
2019-05-05T12:35:48.924Z,42.04
2019-05-05T12:36:48.913Z,42.76
2019-05-05T12:37:48.903Z,41.63
2019-05-05T12:38:48.890Z,42.65
2019-05-05T12:39:48.878Z,44.61
2019-05-05T12:40:49.082Z,44.79
2019-05-05T12:41:48.857Z,42.14
2019-05-05T12:42:48.848Z,42.96
2019-05-05T12:43:48.833Z,44.06
2019-05-05T12:44:48.822Z,43.53
2019-05-05T12:45:48.812Z,40.37
2019-05-05T12:46:48.869Z,38.51
2019-05-05T12:47:48.787Z,38.92
2019-05-05T12:48:48.796Z,39.35
2019-05-05T12:49:48.824Z,40.28
2019-05-05T12:50:48.850Z,40.26
2019-05-05T12:51:48.752Z,39.45
2019-05-05T12:52:48.858Z,39.03